createdAt,value
2023-08-20T00:01:36.550Z,81.86
2023-08-20T00:04:04.627Z,81.74
2023-08-20T00:06:33.473Z,81.84
2023-08-20T00:09:01.259Z,81.83
2023-08-20T00:11:28.580Z,81.69
2023-08-20T00:13:55.660Z,81.61
2023-08-20T00:16:22.986Z,81.67
2023-08-20T00:18:50.198Z,81.97
2023-08-20T00:21:17.651Z,81.76
2023-08-20T00:23:44.853Z,81.72
2023-08-20T00:26:14.030Z,81.68
2023-08-20T00:28:41.900Z,81.76
2023-08-20T00:31:09.067Z,81.66
2023-08-20T00:33:36.707Z,81.72
2023-08-20T00:36:04.037Z,81.79
2023-08-20T00:38:31.711Z,81.72
2023-08-20T00:40:59.607Z,81.73
2023-08-20T00:43:26.831Z,81.73
2023-08-20T00:45:54.707Z,81.85
2023-08-20T00:48:22.183Z,81.80
2023-08-20T00:50:49.856Z,81.73
2023-08-20T00:53:18.231Z,81.68
2023-08-20T00:55:46.636Z,81.73
2023-08-20T00:58:14.257Z,81.80
2023-08-20T01:00:41.512Z,81.85
2023-08-20T01:03:10.896Z,81.77
2023-08-20T01:05:45.395Z,81.73
2023-08-20T01:08:23.452Z,81.90
2023-08-20T01:10:59.306Z,81.94
2023-08-20T01:13:27.065Z,81.84
2023-08-20T01:15:54.497Z,81.90
2023-08-20T01:18:21.761Z,81.97
2023-08-20T01:20:54.365Z,81.86
2023-08-20T01:23:58.580Z,81.95
2023-08-20T01:26:51.098Z,81.95
2023-08-20T01:29:18.811Z,81.92
2023-08-20T01:31:46.492Z,81.99
2023-08-20T01:34:14.416Z,82.01
2023-08-20T01:36:41.746Z,82.02
2023-08-20T01:39:11.861Z,82.12
2023-08-20T01:41:39.291Z,82.06
2023-08-20T01:44:06.695Z,82.02
2023-08-20T01:46:34.086Z,82.08
2023-08-20T01:49:01.336Z,82.07
2023-08-20T01:51:29.477Z,82.18
2023-08-20T01:53:58.459Z,82.01
2023-08-20T01:56:25.687Z,82.18
2023-08-20T01:58:52.880Z,82.21
2023-08-20T02:01:21.179Z,82.19
2023-08-20T02:03:48.244Z,82.12
2023-08-20T02:06:15.342Z,82.19
2023-08-20T02:08:45.954Z,82.07
2023-08-20T02:11:12.941Z,82.19
2023-08-20T02:13:40.036Z,82.13
2023-08-20T02:16:08.106Z,82.07
2023-08-20T02:18:35.389Z,82.03
2023-08-20T02:21:02.405Z,82.21
2023-08-20T02:23:29.586Z,82.06
2023-08-20T02:25:57.169Z,82.13
2023-08-20T02:28:24.291Z,82.11
2023-08-20T02:30:51.950Z,82.23
2023-08-20T02:33:19.087Z,82.08
2023-08-20T02:35:46.363Z,82.17
2023-08-20T02:38:13.413Z,82.28
2023-08-20T02:40:44.735Z,82.02
2023-08-20T02:43:13.163Z,82.01
2023-08-20T02:45:46.639Z,81.93
2023-08-20T02:48:15.199Z,81.87
2023-08-20T02:50:42.613Z,81.84
2023-08-20T02:53:09.895Z,82.05
2023-08-20T02:55:36.918Z,81.95
2023-08-20T02:58:05.141Z,82.02
2023-08-20T03:00:32.722Z,81.84
2023-08-20T03:02:59.990Z,81.89
2023-08-20T03:05:27.345Z,81.99
2023-08-20T03:07:57.612Z,81.95
2023-08-20T03:10:24.954Z,81.90
2023-08-20T03:12:51.952Z,81.86
2023-08-20T03:15:19.021Z,81.95
2023-08-20T03:17:46.135Z,81.92
2023-08-20T03:20:13.497Z,81.84
2023-08-20T03:22:40.545Z,81.81
2023-08-20T03:25:08.271Z,82.03
2023-08-20T03:27:35.713Z,81.92
2023-08-20T03:30:05.118Z,81.94
2023-08-20T03:32:33.284Z,81.93
2023-08-20T03:35:02.883Z,82.05
2023-08-20T03:37:30.318Z,82.00
2023-08-20T03:39:58.190Z,82.11
2023-08-20T03:42:25.099Z,82.20
2023-08-20T03:44:52.139Z,82.02
2023-08-20T03:47:21.708Z,82.38
2023-08-20T03:49:49.613Z,82.12
2023-08-20T03:52:16.875Z,82.13
2023-08-20T03:54:43.910Z,82.08
2023-08-20T03:57:10.923Z,81.93
2023-08-20T03:59:37.951Z,81.85
2023-08-20T04:02:05.248Z,81.94
2023-08-20T04:04:32.818Z,81.73
2023-08-20T04:07:00.181Z,81.58
2023-08-20T04:09:27.105Z,81.37
2023-08-20T04:11:54.179Z,81.17
2023-08-20T04:14:21.208Z,80.86
2023-08-20T04:16:48.275Z,80.78
2023-08-20T04:19:15.229Z,80.71
2023-08-20T04:21:42.511Z,80.44
2023-08-20T04:24:09.919Z,80.06
2023-08-20T04:26:37.159Z,79.55
2023-08-20T04:29:04.439Z,79.32
2023-08-20T04:31:31.583Z,78.77
2023-08-20T04:34:04.378Z,78.33
2023-08-20T04:36:39.854Z,78.07
2023-08-20T04:39:06.945Z,77.58
2023-08-20T04:41:37.096Z,77.29
2023-08-20T04:44:04.859Z,76.93
2023-08-20T04:46:31.874Z,76.48
2023-08-20T04:48:59.348Z,75.99
2023-08-20T04:51:26.380Z,75.93
2023-08-20T04:53:53.537Z,75.44
2023-08-20T04:56:20.566Z,75.49
2023-08-20T04:58:47.693Z,75.16
2023-08-20T05:01:28.082Z,75.09
2023-08-20T05:03:55.229Z,74.98
2023-08-20T05:06:22.559Z,74.71
2023-08-20T05:08:49.598Z,74.49
2023-08-20T05:11:16.738Z,74.50
2023-08-20T05:13:46.460Z,74.13
2023-08-20T05:16:14.071Z,73.97
2023-08-20T05:18:41.222Z,73.89
2023-08-20T05:21:08.379Z,73.47
2023-08-20T05:23:37.870Z,73.34
2023-08-20T05:26:04.888Z,73.25
2023-08-20T05:28:32.626Z,72.84
2023-08-20T05:31:00.370Z,72.97
2023-08-20T05:33:27.862Z,72.79
2023-08-20T05:35:56.221Z,72.79
2023-08-20T05:38:23.586Z,72.72
2023-08-20T05:40:51.805Z,72.89
2023-08-20T05:43:18.918Z,72.73
2023-08-20T05:45:46.203Z,72.88
2023-08-20T05:48:18.835Z,72.95
2023-08-20T05:50:46.253Z,72.91
2023-08-20T05:53:13.418Z,73.02
2023-08-20T05:55:44.476Z,73.08
2023-08-20T05:58:12.471Z,73.21
2023-08-20T06:00:39.710Z,73.27
2023-08-20T06:03:08.688Z,73.41
2023-08-20T06:05:36.082Z,73.58
2023-08-20T06:08:03.322Z,73.52
2023-08-20T06:10:30.501Z,73.56
2023-08-20T06:12:58.370Z,73.62
2023-08-20T06:15:25.773Z,73.59
2023-08-20T06:17:52.879Z,73.74
2023-08-20T06:20:20.090Z,73.91
2023-08-20T06:22:47.538Z,73.78
2023-08-20T06:25:14.685Z,73.76
2023-08-20T06:27:43.004Z,73.78
2023-08-20T06:30:10.895Z,73.47
2023-08-20T06:32:37.937Z,73.55
2023-08-20T06:35:05.617Z,73.23
2023-08-20T06:37:33.277Z,73.44
2023-08-20T06:40:00.758Z,72.80
2023-08-20T06:42:27.952Z,72.98
2023-08-20T06:44:55.437Z,72.68
2023-08-20T06:47:22.469Z,72.56
2023-08-20T06:49:50.749Z,72.00
2023-08-20T06:52:18.299Z,72.04
2023-08-20T06:54:46.239Z,71.92
2023-08-20T06:57:13.442Z,71.47
2023-08-20T06:59:40.629Z,71.19
2023-08-20T07:02:07.751Z,70.93
2023-08-20T07:04:35.330Z,70.53
2023-08-20T07:07:02.496Z,70.33
2023-08-20T07:09:29.696Z,69.82
2023-08-20T07:11:57.122Z,69.41
2023-08-20T07:14:24.343Z,69.12
2023-08-20T07:16:51.439Z,68.58
2023-08-20T07:19:18.882Z,68.35
2023-08-20T07:21:46.082Z,67.85
2023-08-20T07:24:13.331Z,67.59
2023-08-20T07:26:40.788Z,67.04
2023-08-20T07:29:07.898Z,66.71
2023-08-20T07:31:39.654Z,66.24
2023-08-20T07:36:39.881Z,65.17
2023-08-20T07:39:07.115Z,65.02
2023-08-20T07:41:34.304Z,64.82
2023-08-20T07:44:01.453Z,64.18
2023-08-20T07:46:28.710Z,63.73
2023-08-20T07:48:55.893Z,63.71
2023-08-20T07:51:23.108Z,63.23
2023-08-20T07:53:50.233Z,62.87
2023-08-20T07:56:17.252Z,62.51
2023-08-20T07:58:44.570Z,61.99
2023-08-20T08:01:11.609Z,62.09
2023-08-20T08:03:39.031Z,61.90
2023-08-20T08:06:06.411Z,61.61
2023-08-20T08:08:33.544Z,61.36
2023-08-20T08:11:00.800Z,60.90
2023-08-20T08:13:28.042Z,60.96
2023-08-20T08:15:55.531Z,60.72
2023-08-20T08:18:22.983Z,60.20
2023-08-20T08:20:50.722Z,60.55
2023-08-20T08:23:17.687Z,60.16
2023-08-20T08:25:44.889Z,60.40
2023-08-20T08:28:11.912Z,59.94
2023-08-20T08:30:39.764Z,60.02
2023-08-20T08:33:06.830Z,59.81
2023-08-20T08:35:33.898Z,60.02
2023-08-20T08:38:04.777Z,59.76
2023-08-20T08:40:32.110Z,59.66
2023-08-20T08:42:59.865Z,59.64
2023-08-20T08:45:28.153Z,59.55
2023-08-20T08:47:56.578Z,59.39
2023-08-20T08:50:23.892Z,59.58
2023-08-20T08:52:54.015Z,59.38
2023-08-20T08:55:21.368Z,58.98
2023-08-20T08:57:48.823Z,58.71
2023-08-20T09:00:16.479Z,58.69
2023-08-20T09:02:44.186Z,58.71
2023-08-20T09:05:12.582Z,58.57
2023-08-20T09:07:46.144Z,57.94
2023-08-20T09:10:13.848Z,58.06
2023-08-20T09:12:41.135Z,58.11
2023-08-20T09:15:12.825Z,57.79
2023-08-20T09:17:43.305Z,57.91
2023-08-20T09:20:10.986Z,57.52
2023-08-20T09:22:38.958Z,57.72
2023-08-20T09:25:06.445Z,57.35
2023-08-20T09:27:41.378Z,57.08
2023-08-20T09:30:09.186Z,56.92
2023-08-20T09:32:36.276Z,57.18
2023-08-20T09:35:03.484Z,56.78
2023-08-20T09:37:30.436Z,56.85
2023-08-20T09:39:57.664Z,56.67
2023-08-20T09:42:29.336Z,56.64
2023-08-20T09:44:56.770Z,56.86
2023-08-20T09:47:25.820Z,56.79
2023-08-20T09:49:54.056Z,56.93
2023-08-20T09:52:27.221Z,56.79
2023-08-20T09:55:10.082Z,56.40
2023-08-20T09:57:41.977Z,56.29
2023-08-20T10:00:13.469Z,56.51
2023-08-20T10:02:42.025Z,56.40
2023-08-20T10:05:13.355Z,56.25
2023-08-20T10:07:40.639Z,55.73
2023-08-20T10:10:15.066Z,55.82
2023-08-20T10:12:43.296Z,55.47
2023-08-20T10:15:11.749Z,55.14
2023-08-20T10:17:40.759Z,54.63
2023-08-20T10:20:12.168Z,54.48
2023-08-20T10:22:43.960Z,54.64
2023-08-20T10:25:24.322Z,54.02
2023-08-20T10:27:51.654Z,54.26
2023-08-20T10:30:22.564Z,53.89
2023-08-20T10:32:51.606Z,53.97
2023-08-20T10:35:24.971Z,53.69
2023-08-20T10:38:19.584Z,53.63
2023-08-20T10:40:57.201Z,53.33
2023-08-20T10:43:35.785Z,53.39
2023-08-20T10:46:26.667Z,53.44
2023-08-20T10:49:02.497Z,53.18
2023-08-20T10:51:34.650Z,53.04
2023-08-20T10:54:08.419Z,52.99
2023-08-20T10:56:44.815Z,52.77
2023-08-20T10:59:32.024Z,52.37
2023-08-20T11:02:00.559Z,52.63
2023-08-20T11:04:35.760Z,52.42
2023-08-20T11:07:04.391Z,52.23
2023-08-20T11:09:32.472Z,52.48
2023-08-20T11:12:00.569Z,52.56
2023-08-20T11:14:27.962Z,52.18
2023-08-20T11:16:55.523Z,52.18
2023-08-20T11:19:24.165Z,52.31
2023-08-20T11:21:52.255Z,52.47
2023-08-20T11:24:21.127Z,52.18
2023-08-20T11:26:48.767Z,52.36
2023-08-20T11:29:21.211Z,52.64
2023-08-20T11:31:49.835Z,53.09
2023-08-20T11:34:17.827Z,53.25
2023-08-20T11:36:45.209Z,53.32
2023-08-20T11:39:12.695Z,53.75
2023-08-20T11:41:40.820Z,53.70
2023-08-20T11:44:10.502Z,53.99
2023-08-20T11:46:44.473Z,54.29
2023-08-20T11:49:12.888Z,54.51
2023-08-20T11:51:41.774Z,54.23
2023-08-20T11:54:11.402Z,54.59
2023-08-20T11:56:46.693Z,54.53
2023-08-20T11:59:15.213Z,54.59
2023-08-20T12:01:42.489Z,55.14
2023-08-20T12:04:11.349Z,54.98
2023-08-20T12:06:39.576Z,55.16
2023-08-20T12:09:26.847Z,55.42
2023-08-20T12:11:57.319Z,55.54
2023-08-20T12:14:24.996Z,55.86
2023-08-20T12:16:52.697Z,55.99
2023-08-20T12:19:20.206Z,56.29
2023-08-20T12:21:47.361Z,56.80
2023-08-20T12:24:14.813Z,57.24
2023-08-20T12:26:41.996Z,57.97
2023-08-20T12:29:09.721Z,58.26
2023-08-20T12:31:37.152Z,58.67
2023-08-20T12:34:04.698Z,59.14
2023-08-20T12:36:32.008Z,59.96
2023-08-20T12:38:59.401Z,60.23
2023-08-20T12:41:26.798Z,60.52
2023-08-20T12:43:53.968Z,61.26
2023-08-20T12:46:21.610Z,61.23
2023-08-20T12:48:48.853Z,61.89
2023-08-20T12:51:18.450Z,62.11
2023-08-20T12:53:45.808Z,61.97
2023-08-20T12:56:13.261Z,62.59
2023-08-20T12:58:40.569Z,62.76
2023-08-20T13:01:08.338Z,62.65
2023-08-20T13:03:36.212Z,63.16
2023-08-20T13:06:03.706Z,63.37
2023-08-20T13:08:31.964Z,63.13
2023-08-20T13:10:59.677Z,63.08
2023-08-20T13:13:27.354Z,63.33
2023-08-20T13:15:55.408Z,63.30
2023-08-20T13:18:26.596Z,63.64
2023-08-20T13:20:54.659Z,63.30
2023-08-20T13:23:21.964Z,63.68
2023-08-20T13:25:49.123Z,63.61
2023-08-20T13:28:16.344Z,63.94
2023-08-20T13:30:43.627Z,63.68
2023-08-20T13:33:10.685Z,64.03
2023-08-20T13:35:37.961Z,63.85
2023-08-20T13:38:05.932Z,63.58
2023-08-20T13:40:33.154Z,63.65
2023-08-20T13:43:00.381Z,63.63
2023-08-20T13:45:27.632Z,63.68
2023-08-20T13:47:54.884Z,63.47
2023-08-20T13:50:22.357Z,63.56
2023-08-20T13:52:49.560Z,63.34
2023-08-20T13:55:16.894Z,63.45
2023-08-20T13:57:44.164Z,63.35
2023-08-20T14:00:13.888Z,63.31
2023-08-20T14:02:41.747Z,63.08
2023-08-20T14:05:09.641Z,62.98
2023-08-20T14:07:36.900Z,62.70
2023-08-20T14:10:05.617Z,62.49
2023-08-20T14:12:33.067Z,62.13
2023-08-20T14:15:00.198Z,62.12
2023-08-20T14:17:28.590Z,61.79
2023-08-20T14:19:55.660Z,61.67
2023-08-20T14:22:23.014Z,61.34
2023-08-20T14:24:49.930Z,61.23
2023-08-20T14:27:17.018Z,61.19
2023-08-20T14:29:44.145Z,61.12
2023-08-20T14:32:11.422Z,60.94
2023-08-20T14:34:38.435Z,60.88
2023-08-20T14:37:05.633Z,60.98
2023-08-20T14:39:33.049Z,61.01
2023-08-20T14:42:00.849Z,61.29
2023-08-20T14:44:28.727Z,61.21
2023-08-20T14:46:56.052Z,61.21
2023-08-20T14:49:23.157Z,61.53
2023-08-20T14:51:50.766Z,61.39
2023-08-20T14:54:17.799Z,61.31
2023-08-20T14:56:45.771Z,61.31
2023-08-20T14:59:12.812Z,61.51
2023-08-20T15:01:40.091Z,61.76
2023-08-20T15:04:08.124Z,61.69
2023-08-20T15:06:35.390Z,62.04
2023-08-20T15:09:02.372Z,61.59
2023-08-20T15:11:29.509Z,61.71
2023-08-20T15:13:56.778Z,62.04
2023-08-20T15:16:23.987Z,61.81
2023-08-20T15:18:51.311Z,62.00
2023-08-20T15:21:18.503Z,61.94
2023-08-20T15:23:45.794Z,61.96
2023-08-20T15:26:13.439Z,62.09
2023-08-20T15:28:40.773Z,62.12
2023-08-20T15:31:08.873Z,62.54
2023-08-20T15:33:36.108Z,62.36
2023-08-20T15:36:04.288Z,62.42
2023-08-20T15:38:31.270Z,62.75
2023-08-20T15:41:00.350Z,62.85
2023-08-20T15:43:28.475Z,62.87
2023-08-20T15:45:58.471Z,62.70
2023-08-20T15:48:25.484Z,63.11
2023-08-20T15:50:52.659Z,63.00
2023-08-20T15:53:19.901Z,62.87
2023-08-20T15:55:48.035Z,63.23
2023-08-20T15:58:15.247Z,63.26
2023-08-20T16:00:42.334Z,63.08
2023-08-20T16:03:10.165Z,63.28
2023-08-20T16:05:37.183Z,63.08
2023-08-20T16:08:04.667Z,63.43
2023-08-20T16:10:31.954Z,63.50
2023-08-20T16:12:59.155Z,63.40
2023-08-20T16:15:27.253Z,63.60
2023-08-20T16:17:55.849Z,63.74
2023-08-20T16:20:23.376Z,64.24
2023-08-20T16:22:50.761Z,64.11
2023-08-20T16:25:17.969Z,64.42
2023-08-20T16:27:45.168Z,64.39
2023-08-20T16:30:12.773Z,64.57
2023-08-20T16:32:40.238Z,64.81
2023-08-20T16:35:07.965Z,65.15
2023-08-20T16:37:35.569Z,65.21
2023-08-20T16:40:06.625Z,65.17
2023-08-20T16:42:33.861Z,65.56
2023-08-20T16:45:00.996Z,65.45
2023-08-20T16:47:28.139Z,65.55
2023-08-20T16:49:55.351Z,65.16
2023-08-20T16:52:22.368Z,65.15
2023-08-20T16:54:49.563Z,65.42
2023-08-20T16:57:16.787Z,65.33
2023-08-20T16:59:43.910Z,65.45
2023-08-20T17:02:11.102Z,65.17
2023-08-20T17:04:38.177Z,65.43
2023-08-20T17:07:05.567Z,65.27
2023-08-20T17:09:32.832Z,65.20
2023-08-20T17:12:00.429Z,65.23
2023-08-20T17:14:28.290Z,65.11
2023-08-20T17:16:56.272Z,64.70
2023-08-20T17:19:24.270Z,64.85
2023-08-20T17:21:51.931Z,64.86
2023-08-20T17:24:19.609Z,64.76
2023-08-20T17:26:47.021Z,64.70
2023-08-20T17:29:14.107Z,64.59
2023-08-20T17:31:41.320Z,64.72
2023-08-20T17:34:09.475Z,64.74
2023-08-20T17:36:36.765Z,64.74
2023-08-20T17:39:04.810Z,64.72
2023-08-20T17:41:32.428Z,64.88
2023-08-20T17:43:59.663Z,64.91
2023-08-20T17:46:26.912Z,65.02
2023-08-20T17:48:54.071Z,65.25
2023-08-20T17:51:21.215Z,65.19
2023-08-20T17:53:48.180Z,65.27
2023-08-20T17:56:15.430Z,65.55
2023-08-20T17:58:42.504Z,65.68
2023-08-20T18:01:09.780Z,65.83
2023-08-20T18:03:36.854Z,65.93
2023-08-20T18:06:04.012Z,65.97
2023-08-20T18:08:31.235Z,66.12
2023-08-20T18:11:00.012Z,66.27
2023-08-20T18:13:27.427Z,66.61
2023-08-20T18:15:54.552Z,66.66
2023-08-20T18:18:21.628Z,66.72
2023-08-20T18:20:48.923Z,66.99
2023-08-20T18:23:18.041Z,67.15
2023-08-20T18:25:45.236Z,67.21
2023-08-20T18:28:12.391Z,67.36
2023-08-20T18:30:39.496Z,67.60
2023-08-20T18:33:06.733Z,67.67
2023-08-20T18:35:40.988Z,67.80
2023-08-20T18:38:19.998Z,67.98
2023-08-20T18:40:47.940Z,68.18
2023-08-20T18:43:15.211Z,68.13
2023-08-20T18:45:43.252Z,68.32
2023-08-20T18:48:10.831Z,68.74
2023-08-20T18:50:40.231Z,68.70
2023-08-20T18:53:08.631Z,68.71
2023-08-20T18:55:36.015Z,69.07
2023-08-20T18:58:03.509Z,68.98
2023-08-20T19:00:30.961Z,69.30
2023-08-20T19:02:58.183Z,69.11
2023-08-20T19:05:25.411Z,69.43
2023-08-20T19:07:54.322Z,69.45
2023-08-20T19:10:21.388Z,69.89
2023-08-20T19:12:48.644Z,69.88
2023-08-20T19:15:15.688Z,69.99
2023-08-20T19:17:42.798Z,70.08
2023-08-20T19:20:10.343Z,70.21
2023-08-20T19:22:39.443Z,70.21
2023-08-20T19:25:08.085Z,70.31
2023-08-20T19:27:35.642Z,70.59
2023-08-20T19:30:08.425Z,70.67
2023-08-20T19:32:36.936Z,70.81
2023-08-20T19:35:07.113Z,71.01
2023-08-20T19:37:34.318Z,71.07
2023-08-20T19:40:02.340Z,71.46
2023-08-20T19:42:29.549Z,71.54
2023-08-20T19:44:58.251Z,71.57
2023-08-20T19:47:25.509Z,71.86
2023-08-20T19:49:52.908Z,71.97
2023-08-20T19:52:20.286Z,72.20
2023-08-20T19:54:47.938Z,72.27
2023-08-20T19:57:16.106Z,72.39
2023-08-20T19:59:43.183Z,72.80
2023-08-20T20:02:10.239Z,72.79
2023-08-20T20:04:39.583Z,72.88
2023-08-20T20:09:49.907Z,73.37
2023-08-20T20:12:21.210Z,73.57
2023-08-20T20:14:50.499Z,73.77
2023-08-20T20:17:21.979Z,74.00
2023-08-20T20:19:54.505Z,74.21
2023-08-20T20:22:27.824Z,74.38
2023-08-20T20:24:59.018Z,74.61
2023-08-20T20:27:28.035Z,74.87
2023-08-20T20:29:57.326Z,75.03
2023-08-20T20:32:26.117Z,75.28
2023-08-20T20:34:54.492Z,75.40
2023-08-20T20:37:21.609Z,75.58
2023-08-20T20:39:48.762Z,75.68
2023-08-20T20:42:15.844Z,75.90
2023-08-20T20:44:44.058Z,76.03
2023-08-20T20:47:11.728Z,76.19
2023-08-20T20:49:39.045Z,76.18
2023-08-20T20:52:06.856Z,76.38
2023-08-20T20:54:34.000Z,76.45
2023-08-20T20:57:01.247Z,76.58
2023-08-20T20:59:28.384Z,76.81
2023-08-20T21:01:55.479Z,76.62
2023-08-20T21:04:22.636Z,76.79
2023-08-20T21:06:51.416Z,76.86
2023-08-20T21:09:18.749Z,76.87
2023-08-20T21:11:45.911Z,77.02
2023-08-20T21:14:12.964Z,77.03
2023-08-20T21:16:40.088Z,77.05
2023-08-20T21:19:07.400Z,77.03
2023-08-20T21:21:34.562Z,77.18
2023-08-20T21:24:01.631Z,77.22
2023-08-20T21:26:28.600Z,77.32
2023-08-20T21:28:55.512Z,77.55
2023-08-20T21:31:22.520Z,77.41
2023-08-20T21:33:49.499Z,77.59
2023-08-20T21:36:16.568Z,77.61
2023-08-20T21:38:43.413Z,77.78
2023-08-20T21:41:10.539Z,77.89
2023-08-20T21:43:37.758Z,77.96
2023-08-20T21:46:06.270Z,77.97
2023-08-20T21:48:33.389Z,78.09
2023-08-20T21:51:00.243Z,78.12
2023-08-20T21:53:27.484Z,78.16
2023-08-20T21:55:56.384Z,78.25
2023-08-20T21:58:23.807Z,78.26
2023-08-20T22:00:50.916Z,78.36
2023-08-20T22:03:17.931Z,78.42
2023-08-20T22:05:44.948Z,78.34
2023-08-20T22:08:14.444Z,78.41
2023-08-20T22:10:43.012Z,78.42
2023-08-20T22:13:10.327Z,78.36
2023-08-20T22:15:37.345Z,78.40
2023-08-20T22:18:04.556Z,78.41
2023-08-20T22:20:31.530Z,78.42
2023-08-20T22:22:58.553Z,78.47
2023-08-20T22:25:25.821Z,78.44
2023-08-20T22:27:52.955Z,78.50
2023-08-20T22:30:21.396Z,78.44
2023-08-20T22:32:48.355Z,78.40
2023-08-20T22:35:15.374Z,78.49
2023-08-20T22:37:43.484Z,78.52
2023-08-20T22:40:10.737Z,78.43
2023-08-20T22:42:38.073Z,78.45
2023-08-20T22:45:05.743Z,78.53
2023-08-20T22:47:32.828Z,78.50
2023-08-20T22:49:59.799Z,78.51
2023-08-20T22:52:26.912Z,78.75
2023-08-20T22:54:53.854Z,78.44
2023-08-20T22:57:20.831Z,78.54
2023-08-20T22:59:48.152Z,78.52
2023-08-20T23:02:15.037Z,78.50
2023-08-20T23:04:43.141Z,78.57
2023-08-20T23:07:11.147Z,78.55
2023-08-20T23:09:38.136Z,78.47
2023-08-20T23:12:05.434Z,78.48
2023-08-20T23:14:32.264Z,78.50
2023-08-20T23:16:59.342Z,78.47
2023-08-20T23:19:27.002Z,78.51
2023-08-20T23:21:53.956Z,78.53
2023-08-20T23:24:22.883Z,78.47
2023-08-20T23:26:51.054Z,78.48
2023-08-20T23:29:18.501Z,78.61
2023-08-20T23:31:45.926Z,78.52
2023-08-20T23:34:12.978Z,78.71
2023-08-20T23:36:39.819Z,78.65
2023-08-20T23:39:06.768Z,78.63
2023-08-20T23:41:33.908Z,78.81
2023-08-20T23:44:00.888Z,78.63
2023-08-20T23:46:46.498Z,78.73
2023-08-20T23:49:14.999Z,78.69
2023-08-20T23:51:41.840Z,78.50
2023-08-20T23:54:09.856Z,78.57
2023-08-20T23:56:36.761Z,78.49
2023-08-20T23:59:03.862Z,78.36
